Flight Track Log - Related Links

Times and Time Zones

All times are in EST time to prevent confusion due to time zone crossing. See the EJM826 flight status page for this flight to view local times or setup timezone preferences in your user account.

Time Position Orientation Groundspeed Altitude Reporting Facility
EST Latitude Longitude Course Direction KTS MPH feet Rate Location/Type
Sun 03:30:09 PM 41.6167 -87.4500 252° West 175 201 1,900  Level Chicago TRACON
Sun 03:31:15 PM 41.6000 -87.5167 252° West 218 251 3,000 1,313 Climbing Chicago TRACON
Sun 03:32:17 PM 41.5725 -87.5936 244° Southwest 219 252 4,700 2,758 Climbing Chicago Center
Sun 03:33:19 PM 41.5139 -87.6478 215° Southwest 265 305 8,700 3,823 Climbing Chicago Center
Sun 03:34:21 PM 41.4339 -87.7089 210° Southwest 274 315 12,600 3,290 Climbing Chicago Center
Sun 03:35:23 PM 41.3603 -87.7622 209° Southwest 295 339 15,500 2,806 Climbing Chicago Center
Sun 03:36:25 PM 41.2803 -87.8186 208° Southwest 317 365 18,400 2,613 Climbing Chicago Center
Sun 03:37:27 PM 41.1950 -87.8781 208° Southwest 336 387 20,900 2,488 Climbing Chicago Center
Sun 03:38:28 PM 41.1072 -87.9397 208° Southwest 351 404 23,500 2,537 Climbing Chicago Center
Sun 03:39:30 PM 41.0183 -88.0022 208° Southwest 357 411 26,100 2,034 Climbing Chicago Center
Sun 03:41:22 PM 40.8550 -88.1172 208° Southwest 373 429 29,400 1,646 Climbing Kansas City Center
Sun 03:42:25 PM 40.7564 -88.1856 208° Southwest 394 453 30,900 1,440 Climbing Kansas City Center
Sun 03:43:27 PM 40.6583 -88.2542 208° Southwest 396 456 32,400 1,805 Climbing Kansas City Center
Sun 03:44:28 PM 40.5339 -88.3403 208° Southwest 414 476 34,600 1,884 Climbing Kansas City Center
Sun 03:45:28 PM 40.4336 -88.4108 208° Southwest 411 473 36,200 2,089 Climbing Kansas City Center
Sun 03:46:43 PM 40.3181 -88.4903 208° Southwest 402 463 39,300 1,577 Climbing Chicago Center
Sun 03:47:45 PM 40.2239 -88.5539 207° Southwest 380 437 39,800 581 Climbing Chicago Center
Sun 03:48:47 PM 40.1264 -88.6203 208° Southwest 391 450 40,500 919 Climbing Chicago Center
Sun 03:49:49 PM 40.0261 -88.6897 208° Southwest 403 464 41,700 1,220 Climbing Chicago Center
Sun 03:50:50 PM 39.9122 -88.7700 208° Southwest 387 445 43,000 690 Climbing Chicago Center
Sun 03:51:42 PM 39.8339 -88.8258 209° Southwest 387 445 43,000  Level Kansas City Center
Sun 03:52:43 PM 39.7339 -88.8967 209° Southwest 401 461 43,000  Level Kansas City Center
Sun 03:53:43 PM 39.6325 -88.9669 208° Southwest 409 471 43,000  Level Kansas City Center
Sun 03:54:47 PM 39.5311 -89.0389 209° Southwest 412 474 43,000  Level Kansas City Center
Sun 03:55:49 PM 39.4144 -89.1189 208° Southwest 419 482 43,000  Level Kansas City Center
Sun 03:56:52 PM 39.3128 -89.1894 208° Southwest 416 479 43,000  Level Kansas City Center
Sun 03:57:53 PM 39.2114 -89.2597 208° Southwest 416 479 43,000  Level Kansas City Center
Sun 03:58:55 PM 39.1089 -89.3297 208° Southwest 416 479 43,000  Level Kansas City Center
Sun 03:59:56 PM 39.0058 -89.4008 208° Southwest 418 481 43,000  Level Kansas City Center
Sun 04:01:00 PM 38.9019 -89.4728 208° Southwest 423 487 43,000  Level Kansas City Center
Sun 04:02:00 PM 38.7969 -89.5439 208° Southwest 425 489 43,000  Level Kansas City Center
Sun 04:03:03 PM 38.6689 -89.6319 208° Southwest 432 497 43,000  Level Kansas City Center
Sun 04:04:04 PM 38.5617 -89.7031 207° Southwest 432 497 43,000  Level Kansas City Center
Sun 04:05:08 PM 38.4544 -89.7758 208° Southwest 433 498 43,000  Level Kansas City Center
Sun 04:06:08 PM 38.3467 -89.8469 207° Southwest 433 498 43,000  Level Kansas City Center
Sun 04:07:10 PM 38.2386 -89.9206 208° Southwest 436 502 43,000  Level Kansas City Center
Sun 04:08:14 PM 38.1142 -90.0047 208° Southwest 436 502 43,000  Level Kansas City Center
Sun 04:09:14 PM 38.0242 -90.0633 207° Southwest 432 497 43,000  Level Kansas City Center
Sun 04:10:18 PM 37.8956 -90.1489 208° Southwest 433 498 43,000  Level Kansas City Center
Sun 04:11:18 PM 37.7889 -90.2203 208° Southwest 433 498 43,000  Level Kansas City Center
Sun 04:12:22 PM 37.6831 -90.2897 207° Southwest 430 495 43,000  Level Kansas City Center
Sun 04:13:23 PM 37.5778 -90.3592 208° Southwest 428 493 43,000  Level Kansas City Center
Sun 04:14:25 PM 37.4731 -90.4267 207° Southwest 424 488 43,000  Level Kansas City Center
Sun 04:15:28 PM 37.3675 -90.4967 208° Southwest 426 490 43,000  Level Kansas City Center
Sun 04:16:28 PM 37.2447 -90.5753 207° Southwest 427 491 43,000  Level Kansas City Center
Sun 04:17:32 PM 37.1394 -90.6436 207° Southwest 426 490 43,000  Level Kansas City Center
Sun 04:18:33 PM 37.0336 -90.7114 207° Southwest 428 493 43,000  Level Kansas City Center
Sun 04:19:37 PM 36.9294 -90.7792 207° Southwest 425 489 43,000  Level Kansas City Center
Sun 04:20:38 PM 36.8039 -90.8594 207° Southwest 424 488 43,000  Level Kansas City Center
Sun 04:21:38 PM 36.7000 -90.9261 207° Southwest 422 486 43,000  Level Kansas City Center
Sun 04:22:42 PM 36.5947 -90.9936 207° Southwest 423 487 43,000  Level Kansas City Center
Sun 04:23:42 PM 36.4903 -91.0594 207° Southwest 423 487 43,000  Level Kansas City Center
Sun 04:24:57 PM 36.3644 -91.1392 207° Southwest 422 486 43,000  Level Memphis Center
Sun 04:25:59 PM 36.2608 -91.2061 208° Southwest 420 483 43,000  Level Memphis Center
Sun 04:27:01 PM 36.1350 -91.2833 206° Southwest 421 484 43,000  Level Memphis Center
Sun 04:28:03 PM 36.0300 -91.3497 207° Southwest 423 487 43,000  Level Memphis Center
Sun 04:29:05 PM 35.9256 -91.4144 207° Southwest 422 486 43,000  Level Memphis Center
Sun 04:30:07 PM 35.8211 -91.4808 207° Southwest 423 487 43,000  Level Memphis Center
Sun 04:31:09 PM 35.7150 -91.5453 206° Southwest 425 489 43,000  Level Memphis Center
Sun 04:32:11 PM 35.6100 -91.6111 207° Southwest 423 487 43,000  Level Memphis Center
Sun 04:33:13 PM 35.4825 -91.6906 207° Southwest 426 490 43,000  Level Memphis Center
Sun 04:34:15 PM 35.3775 -91.7544 206° Southwest 423 487 43,000  Level Memphis Center
Sun 04:35:17 PM 35.2717 -91.8194 207° Southwest 424 488 43,000  Level Memphis Center
Sun 04:36:19 PM 35.1658 -91.8833 206° Southwest 423 487 43,000  Level Memphis Center
Sun 04:37:21 PM 35.0606 -91.9472 206° Southwest 422 486 43,000  Level Memphis Center
Sun 04:38:23 PM 34.9583 -92.0111 207° Southwest 417 480 43,000  Level Memphis Center
Sun 04:39:25 PM 34.8564 -92.0714 206° Southwest 411 473 43,000  Level Memphis Center
Sun 04:40:27 PM 34.7328 -92.1467 207° Southwest 411 473 43,000  Level Memphis Center
Sun 04:41:29 PM 34.6244 -92.1886 198° South 418 481 43,000  Level Memphis Center
Sun 04:42:31 PM 34.5086 -92.2125 190° South 420 483 43,000  Level Memphis Center
Sun 04:43:34 PM 34.3936 -92.2342 189° South 419 482 43,000  Level Memphis Center
Sun 04:44:36 PM 34.2792 -92.2558 189° South 417 480 43,000  Level Memphis Center
Sun 04:45:38 PM 34.1631 -92.2761 188° South 418 481 43,000  Level Memphis Center
Sun 04:46:40 PM 34.0294 -92.3025 189° South 420 483 43,000  Level Memphis Center
Sun 04:47:42 PM 33.9111 -92.3250 189° South 426 490 43,000  Level Memphis Center
Sun 04:48:44 PM 33.7936 -92.3458 188° South 427 491 43,000  Level Memphis Center
Sun 04:49:46 PM 33.6769 -92.3672 189° South 424 488 43,000  Level Memphis Center
Sun 04:50:48 PM 33.5592 -92.3886 189° South 426 490 43,000  Level Memphis Center
Sun 04:51:50 PM 33.4186 -92.4147 189° South 425 489 43,000  Level Memphis Center
Sun 04:52:44 PM 33.3289 -92.4311 189° South 419 482 43,000  Level Fort Worth Center
Sun 04:53:46 PM 33.2128 -92.4522 189° South 419 482 43,000  Level Fort Worth Center
Sun 04:54:48 PM 33.0969 -92.4717 188° South 418 481 43,000  Level Fort Worth Center
Sun 04:55:50 PM 32.9569 -92.4981 189° South 422 486 43,000  Level Fort Worth Center
Sun 04:56:52 PM 32.8394 -92.5186 188° South 424 488 43,000  Level Fort Worth Center
Sun 04:57:54 PM 32.7211 -92.5392 188° South 426 490 43,000  Level Fort Worth Center
Sun 04:58:56 PM 32.6031 -92.5611 189° South 428 493 43,000  Level Fort Worth Center
Sun 04:59:58 PM 32.4847 -92.5831 189° South 429 494 43,000  Level Fort Worth Center
Sun 05:01:01 PM 32.3503 -92.6069 189° South 430 495 43,000  Level Fort Worth Center
Sun 05:02:10 PM 32.2158 -92.6331 189° South 431 496 43,000  Level Houston Center
Sun 05:03:12 PM 32.0956 -92.6536 188° South 437 503 43,000  Level Houston Center
Sun 05:04:14 PM 31.9767 -92.6750 189° South 433 498 43,000  Level Houston Center
Sun 05:05:18 PM 31.8553 -92.6953 188° South 438 504 43,000  Level Houston Center
Sun 05:06:19 PM 31.7103 -92.7203 188° South 438 504 43,000  Level Houston Center
Sun 05:07:21 PM 31.5900 -92.7419 189° South 438 504 43,000  Level Houston Center
Sun 05:08:23 PM 31.4689 -92.7614 188° South 438 504 43,000  Level Houston Center
Sun 05:09:25 PM 31.3486 -92.7850 190° South 438 504 43,000  Level Houston Center
Sun 05:10:27 PM 31.2550 -92.8608 215° Southwest 413 475 43,000  Level Houston Center
Sun 05:11:29 PM 31.2042 -92.9717 242° Southwest 389 448 43,000 -48 Level Houston Center
Sun 05:12:31 PM 31.1456 -93.1017 242° Southwest 379 436 42,900 -532 Descending Houston Center
Sun 05:13:33 PM 31.0967 -93.2083 242° Southwest 375 432 41,900 -677 Descending Houston Center
Sun 05:14:35 PM 31.0533 -93.3022 242° Southwest 338 389 41,500 -1,016 Descending Houston Center
Sun 05:15:37 PM 31.0128 -93.3931 243° Southwest 321 369 39,800 -1,742 Descending Houston Center
Sun 05:16:39 PM 30.9686 -93.4906 242° Southwest 337 388 37,900 -2,081 Descending Houston Center
Sun 05:17:41 PM 30.9097 -93.6197 242° Southwest 376 433 35,500 -2,129 Descending Houston Center
Sun 05:18:43 PM 30.8592 -93.7311 242° Southwest 390 449 33,500 -1,920 Descending Houston Center
Sun 05:19:46 PM 30.8092 -93.8406 242° Southwest 387 445 31,500 -1,920 Descending Houston Center
Sun 05:20:48 PM 30.7592 -93.9503 242° Southwest 386 444 29,500 -1,935 Descending Houston Center
Sun 05:21:50 PM 30.7061 -94.0650 242° Southwest 405 466 27,500 -2,129 Descending Houston Center
Sun 05:22:52 PM 30.6400 -94.2069 242° Southwest 420 483 25,100 -2,129 Descending Houston Center
Sun 05:23:54 PM 30.5853 -94.3228 241° Southwest 412 474 23,100 -1,978 Descending Houston Center
Sun 05:24:23 PM 30.5594 -94.3825 243° Southwest 404 465 22,100 -1,839 Descending Houston Center
Sun 05:24:56 PM 30.5333 -94.4358 240° Southwest 403 464 21,200 -1,981 Descending Houston Center
Sun 05:26:09 PM 30.4564 -94.5756 237° Southwest 398 458 18,600 -1,984 Descending Houston Center
Sun 05:27:00 PM 30.4025 -94.6583 233° Southwest 382 440 17,100 -1,869 Descending Houston Center
Sun 05:27:10 PM 30.3922 -94.6736 232° Southwest 362 417 16,700 -2,129 Descending Houston Center
Sun 05:28:02 PM 30.3447 -94.7486 234° Southwest 355 409 14,900 -2,361 Descending Houston Center
Sun 05:28:11 PM 30.3303 -94.7711 233° Southwest 353 406 14,300 -1,839 Descending Houston Center
Sun 05:29:04 PM 30.2853 -94.8403 233° Southwest 355 409 13,000 -1,393 Descending Houston Center
Sun 05:29:07 PM 30.2753 -94.8556 233° Southwest 359 413 13,000  Level Houston Center
Sun 05:30:20 PM 30.2039 -94.9661 233° Southwest 352 405 13,000 -50 Level Houston Center
Sun 05:31:08 PM 30.1728 -95.0158 234° Southwest 330 380 12,900 -764 Descending Houston Center
Sun 05:31:15 PM 30.1583 -95.0394 235° Southwest 293 337 12,300 -2,286 Descending Houston Center
Sun 05:32:11 PM 30.0994 -95.0853 214° Southwest 294 338 10,500 -1,913 Descending Houston Center
Sun 05:32:24 PM 30.0833 -95.0922 200° South 291 335 10,100 -484 Descending Houston Center
Sun 05:33:13 PM 30.0261 -95.1169 201° Southwest 283 326 10,000  Descending Houston Center
Sun 05:33:18 PM 30.0189 -95.1219 211° Southwest 269 310 10,100  Climbing Houston Center
Sun 05:34:15 PM 29.9597 -95.1458 199° South 258 297 10,000  Descending Houston Center
Sun 05:34:20 PM 29.9500 -95.1497 199° South 254 292 10,100 -387 Climbing Houston Center
Sun 05:35:17 PM 29.8914 -95.1758 201° Southwest 262 302 9,600 -787 Descending Houston Center
Sun 05:35:21 PM 29.8756 -95.1828 201° Southwest 264 304 9,300 -1,645 Descending Houston Center
Sun 05:36:19 PM 29.8225 -95.2053 200° South 264 304 7,900 -1,574 Descending Houston Center
Sun 05:36:22 PM 29.8069 -95.2131 203° Southwest 259 298 7,700 -1,742 Descending Houston Center
Sun 05:37:21 PM 29.7422 -95.2314 194° South 255 293 6,100 -1,452 Descending Houston Center
Sun 05:37:24 PM 29.7392 -95.2308 171° South 254 292 6,200 -97 Climbing Houston Center
Sun 05:38:23 PM 29.6761 -95.2344 183° South 242 278 6,000 -97 Descending Houston Center
Sun 05:38:26 PM 29.6681 -95.2347 182° South 237 273 6,100  Climbing Houston Center
Sun 05:39:25 PM 29.6103 -95.2364 181° South 242 278 6,000  Descending Houston Center
Sun 05:39:27 PM 29.5992 -95.2383 189° South 249 287 6,100  Climbing Houston Center
Sun 05:40:27 PM 29.5503 -95.2533 195° South 238 274 6,000  Descending Houston Center
Sun 05:40:28 PM 29.5425 -95.2619 224° Southwest 214 246 6,100 -677 Climbing Houston Center
Sun 05:41:29 PM 29.4981 -95.3094 223° Southwest 216 249 5,300 -581 Descending Houston Center
Sun 05:41:30 PM 29.4989 -95.3103 319° Northwest 216 249 5,500 -1,180 Climbing Houston Center
Sun 05:42:30 PM 29.4511 -95.3617 223° Southwest 219 252 4,100 -1,475 Descending Houston Center
Sun 05:42:31 PM 29.4544 -95.3575 47° Northeast 216 249 4,000 -94 Descending Houston Center
Sun 05:43:34 PM 29.4175 -95.4044 228° Southwest 207 238 4,000 90 Level Houston Center
Sun 05:43:38 PM 29.4181 -95.4136 274° West 180 207 4,100 -400 Climbing Houston Center
Sun 05:44:34 PM 29.4342 -95.4525 295° West 165 190 3,600 -517 Descending Houston Center
Sun 05:44:36 PM 29.4314 -95.4525 180° South 178 205 3,600 -1,313 Level Houston Center
Sun 05:45:38 PM 29.4778 -95.4481 North 169 194 2,200 -1,385 Descending Houston Center
Sun 05:45:41 PM 29.4858 -95.4439 24° Northeast 176 203 2,100 -194 Descending Houston Center
Sun 05:46:40 PM 29.5172 -95.4169 37° Northeast 179 206 2,000  Descending Houston Center
Sun 05:46:42 PM 29.5247 -95.4106 37° Northeast 178 205 2,100  Climbing Houston Center
Sun 05:47:42 PM 29.5600 -95.3719 44° Northeast 175 201 2,000  Descending Houston Center
Sun 05:47:44 PM 29.5592 -95.3728 221° Southwest 170 196 2,100 -581 Climbing Houston Center
Sun 05:48:44 PM 29.5908 -95.3378 44° Northeast 165 190 1,400 -590 Descending Houston Center
Sun 05:48:45 PM 29.5917 -95.3378 360° North 125 144 1,500 -632 Climbing Houston Center
Sun 05:49:41 PM 29.6144 -95.3133 43° Northeast 121 139 800 -787 Descending Houston Center
Sun 05:49:46 PM 29.6147 -95.3122 74° East 138 159 700 -627 Descending Houston Center
Sun 05:50:48 PM 29.6383 -95.2861 44° Northeast 124 143 100 -581 Descending Houston Center

Login

Don't have an account? Register now (free) for customized features, flight alerts, and more!